Time;durP1;ratioP1;P1;durP2;ratioP2;P2;SDS_P1;SDS_P2;PMS_P1;PMS_P2;Temp;Humidity;BMP_temperature;BMP_pressure;BME280_temperature;BME280_humidity;BME280_pressure;Samples;Min_cycle;Max_cycle;Signal;HPM_P1;HPM_P2
2021/05/03 00:00:36;;;;;;;8.27;5.72;;;11.40;80.20;;;;;;5021839;28;20128;-61
2021/05/03 00:03:02;;;;;;;9.68;5.63;;;11.40;80.20;;;;;;5009781;28;20026;-60
2021/05/03 00:05:27;;;;;;;8.82;6.03;;;11.40;80.30;;;;;;5022460;28;20038;-61
2021/05/03 00:07:53;;;;;;;10.40;6.45;;;11.40;80.30;;;;;;5013512;28;20029;-60
2021/05/03 00:10:19;;;;;;;8.32;5.88;;;11.30;80.30;;;;;;5025307;28;20033;-61
2021/05/03 00:12:44;;;;;;;8.18;5.68;;;11.30;80.30;;;;;;5020957;28;20034;-61
2021/05/03 00:15:11;;;;;;;11.30;6.28;;;11.30;80.30;;;;;;5020646;28;20029;-60
2021/05/03 00:17:37;;;;;;;11.35;5.75;;;11.30;80.30;;;;;;5019298;28;20053;-60
2021/05/03 00:20:04;;;;;;;7.22;5.38;;;11.20;80.30;;;;;;5011921;28;20420;-60
2021/05/03 00:22:29;;;;;;;7.63;5.50;;;11.20;80.30;;;;;;5024439;28;20160;-60
2021/05/03 00:24:55;;;;;;;7.00;5.65;;;11.20;80.20;;;;;;5027051;28;20483;-60
2021/05/03 00:27:20;;;;;;;8.70;5.18;;;11.20;80.20;;;;;;5016780;28;20481;-60
2021/05/03 00:29:46;;;;;;;7.90;5.53;;;11.30;80.30;;;;;;5016097;28;20433;-60
2021/05/03 00:32:11;;;;;;;6.97;5.78;;;11.30;80.30;;;;;;5012273;28;20156;-60
2021/05/03 00:34:37;;;;;;;7.88;5.53;;;11.20;80.30;;;;;;5024011;28;20045;-60
2021/05/03 00:37:02;;;;;;;9.27;5.53;;;11.20;80.30;;;;;;5017646;28;20108;-60
2021/05/03 00:39:28;;;;;;;11.98;5.43;;;11.20;80.40;;;;;;5023046;28;20091;-61
2021/05/03 00:41:53;;;;;;;8.45;5.03;;;11.20;80.30;;;;;;5015752;28;20150;-61
2021/05/03 00:44:19;;;;;;;7.45;5.30;;;11.20;80.40;;;;;;5012491;28;20038;-60
2021/05/03 00:46:44;;;;;;;6.50;4.95;;;11.20;80.30;;;;;;5020055;28;20108;-61
2021/05/03 00:49:10;;;;;;;9.68;4.80;;;11.20;80.40;;;;;;5028583;28;20041;-61
2021/05/03 00:51:35;;;;;;;8.10;5.45;;;11.10;80.40;;;;;;5020953;28;20065;-60
2021/05/03 00:54:01;;;;;;;9.40;5.75;;;11.20;80.40;;;;;;5023929;28;20059;-60
2021/05/03 00:56:26;;;;;;;8.93;5.30;;;11.10;80.40;;;;;;5017132;28;20029;-60
2021/05/03 00:58:52;;;;;;;6.88;5.15;;;11.10;80.40;;;;;;5019716;28;20092;-60
2021/05/03 01:01:17;;;;;;;6.70;5.03;;;11.10;80.40;;;;;;5022270;28;20038;-61
2021/05/03 01:03:43;;;;;;;6.38;4.80;;;11.10;80.50;;;;;;5027356;28;20029;-61
2021/05/03 01:06:08;;;;;;;6.97;5.13;;;11.10;80.50;;;;;;5028650;28;20083;-61
2021/05/03 01:08:34;;;;;;;7.95;4.55;;;11.10;80.50;;;;;;5021543;28;20087;-60
2021/05/03 01:11:00;;;;;;;7.68;4.65;;;11.10;80.50;;;;;;5028252;28;20024;-60
2021/05/03 01:13:26;;;;;;;8.07;5.05;;;11.10;80.50;;;;;;5023538;28;20367;-60
2021/05/03 01:15:51;;;;;;;6.57;4.90;;;11.00;80.50;;;;;;5013457;28;20033;-61
2021/05/03 01:18:23;;;;;;;9.20;4.82;;;11.00;80.50;;;;;;5025537;28;20477;-60
2021/05/03 01:20:48;;;;;;;7.45;4.85;;;11.10;80.50;;;;;;5012233;28;20030;-61
2021/05/03 01:23:14;;;;;;;8.00;5.90;;;11.00;80.50;;;;;;5020938;28;20124;-60
2021/05/03 01:25:41;;;;;;;8.98;7.25;;;11.00;80.50;;;;;;5019109;28;20233;-61
2021/05/03 01:28:07;;;;;;;7.18;5.65;;;11.00;80.60;;;;;;5014530;28;20065;-60
2021/05/03 01:30:33;;;;;;;9.85;5.65;;;11.00;80.60;;;;;;5006030;28;20119;-60
2021/05/03 01:32:59;;;;;;;7.50;5.35;;;11.00;80.60;;;;;;5015208;28;20049;-60
2021/05/03 01:35:25;;;;;;;7.43;5.45;;;10.90;80.70;;;;;;5021559;28;20489;-60
2021/05/03 01:37:55;;;;;;;8.07;5.72;;;10.90;80.70;;;;;;5020154;28;20030;-61
2021/05/03 01:40:21;;;;;;;6.32;5.05;;;10.90;80.70;;;;;;5009062;28;20037;-60
2021/05/03 01:42:47;;;;;;;6.30;4.90;;;10.90;80.80;;;;;;5022513;28;20759;-60
2021/05/03 01:45:13;;;;;;;5.47;4.85;;;10.90;80.90;;;;;;4991101;28;20362;-60
2021/05/03 01:47:39;;;;;;;9.02;5.07;;;10.90;80.80;;;;;;5027022;28;20088;-60
2021/05/03 01:50:08;;;;;;;8.57;5.25;;;10.90;80.90;;;;;;4998616;28;20349;-60
2021/05/03 01:52:34;;;;;;;5.72;5.00;;;10.90;81.00;;;;;;5001389;28;20033;-60
2021/05/03 01:55:00;;;;;;;6.68;5.28;;;10.90;81.00;;;;;;5001921;28;20025;-60
2021/05/03 01:57:25;;;;;;;5.50;4.85;;;10.80;81.00;;;;;;5024062;28;20103;-60
2021/05/03 01:59:53;;;;;;;6.72;4.90;;;10.80;81.10;;;;;;5017296;28;20025;-61
2021/05/03 02:02:18;;;;;;;7.50;4.40;;;10.80;81.20;;;;;;5021715;28;20025;-60
2021/05/03 02:04:44;;;;;;;5.72;4.82;;;10.70;81.20;;;;;;5020323;28;20442;-61
2021/05/03 02:07:09;;;;;;;6.93;5.10;;;10.70;81.20;;;;;;5021886;28;20541;-60
2021/05/03 02:09:35;;;;;;;8.00;4.68;;;10.70;81.30;;;;;;5020611;28;20037;-60
2021/05/03 02:12:00;;;;;;;7.47;5.15;;;10.70;81.30;;;;;;5027333;28;20037;-60
2021/05/03 02:14:26;;;;;;;5.28;4.53;;;10.70;81.30;;;;;;5020070;28;20034;-60
2021/05/03 02:16:51;;;;;;;5.88;4.57;;;10.70;81.30;;;;;;5017439;28;20037;-61
2021/05/03 02:19:17;;;;;;;5.78;5.18;;;10.70;81.30;;;;;;5016204;28;20053;-60
2021/05/03 02:21:43;;;;;;;9.75;5.47;;;10.70;81.40;;;;;;5026334;28;20048;-61
2021/05/03 02:24:09;;;;;;;6.78;5.30;;;10.60;81.30;;;;;;5022715;28;20026;-60
2021/05/03 02:26:34;;;;;;;8.15;5.43;;;10.60;81.40;;;;;;5019688;28;20036;-61
2021/05/03 02:29:00;;;;;;;5.72;5.10;;;10.60;81.40;;;;;;5012849;28;20021;-60
2021/05/03 02:31:25;;;;;;;7.60;5.18;;;10.60;81.50;;;;;;5000069;28;20595;-61
2021/05/03 02:33:51;;;;;;;5.80;5.20;;;10.60;81.50;;;;;;5014711;28;20025;-61
2021/05/03 02:36:18;;;;;;;9.95;5.15;;;10.60;81.50;;;;;;5011279;28;20033;-60
2021/05/03 02:38:44;;;;;;;6.97;5.15;;;10.60;81.60;;;;;;5017637;28;20029;-60
2021/05/03 02:41:10;;;;;;;14.18;8.68;;;10.60;81.60;;;;;;5011307;28;20036;-60
2021/05/03 02:43:35;;;;;;;9.60;8.02;;;10.50;81.60;;;;;;5024925;28;20049;-60
2021/05/03 02:46:01;;;;;;;10.68;6.53;;;10.50;81.70;;;;;;5021710;28;20033;-60
2021/05/03 02:48:26;;;;;;;10.40;6.35;;;10.50;81.70;;;;;;5024856;28;20044;-60
2021/05/03 02:50:52;;;;;;;7.22;6.20;;;10.50;81.70;;;;;;5016138;28;20029;-60
2021/05/03 02:53:17;;;;;;;7.13;6.40;;;10.50;81.70;;;;;;5026238;28;20025;-60
2021/05/03 02:55:43;;;;;;;7.28;6.15;;;10.50;81.70;;;;;;5021134;28;20095;-60
2021/05/03 02:58:08;;;;;;;7.82;6.30;;;10.40;81.70;;;;;;5024411;28;20050;-60
2021/05/03 03:00:35;;;;;;;8.30;6.20;;;10.40;81.70;;;;;;5012122;28;20038;-60
2021/05/03 03:03:01;;;;;;;8.15;6.50;;;10.40;81.80;;;;;;5015224;28;20037;-60
2021/05/03 03:05:26;;;;;;;6.78;6.07;;;10.40;81.90;;;;;;5016673;28;20497;-60
2021/05/03 03:07:52;;;;;;;7.93;5.85;;;10.40;81.90;;;;;;5013485;28;20030;-60
2021/05/03 03:10:19;;;;;;;9.52;5.97;;;10.40;81.90;;;;;;5018497;28;20707;-60
2021/05/03 03:12:45;;;;;;;8.55;6.13;;;10.30;82.00;;;;;;5022226;28;20435;-60
2021/05/03 03:15:12;;;;;;;8.82;6.40;;;10.30;82.10;;;;;;5025660;28;20025;-60
2021/05/03 03:17:37;;;;;;;7.93;5.93;;;10.30;82.10;;;;;;5018053;28;20021;-60
2021/05/03 03:20:06;;;;;;;5.40;4.90;;;10.30;82.20;;;;;;5026573;28;20044;-60
2021/05/03 03:22:33;;;;;;;8.48;5.35;;;10.20;82.10;;;;;;5015242;28;20440;-60
2021/05/03 03:24:58;;;;;;;6.18;5.30;;;10.20;82.10;;;;;;5019225;28;20040;-60
2021/05/03 03:27:24;;;;;;;6.25;5.38;;;10.20;82.10;;;;;;5016959;28;20393;-60
2021/05/03 03:29:49;;;;;;;7.57;5.60;;;10.20;82.20;;;;;;5013208;28;20769;-60
2021/05/03 03:32:15;;;;;;;5.93;5.25;;;10.20;82.20;;;;;;5016838;28;20025;-61
2021/05/03 03:34:40;;;;;;;6.32;5.32;;;10.10;82.40;;;;;;5009060;28;20026;-60
2021/05/03 03:37:06;;;;;;;7.47;5.10;;;10.10;82.10;;;;;;5029060;28;20417;-60
2021/05/03 03:39:31;;;;;;;6.20;5.60;;;10.10;82.10;;;;;;5006898;28;20474;-60
2021/05/03 03:41:57;;;;;;;7.15;5.60;;;10.10;82.30;;;;;;4999349;28;20219;-60
2021/05/03 03:44:22;;;;;;;6.68;5.43;;;10.10;82.30;;;;;;5017150;28;20119;-60
2021/05/03 03:46:50;;;;;;;10.48;8.18;;;10.00;82.20;;;;;;5013877;28;20032;-60
2021/05/03 03:49:15;;;;;;;8.27;7.40;;;10.00;82.30;;;;;;5010263;28;20127;-61
2021/05/03 03:51:41;;;;;;;7.28;6.57;;;10.00;82.50;;;;;;5021946;28;20029;-60
2021/05/03 03:54:06;;;;;;;7.40;5.88;;;10.00;82.40;;;;;;5025301;28;20263;-61
2021/05/03 03:56:32;;;;;;;7.55;6.05;;;9.90;82.40;;;;;;5015772;28;20555;-60
2021/05/03 03:58:57;;;;;;;7.22;5.97;;;9.90;82.40;;;;;;5017924;28;20033;-61
2021/05/03 04:01:23;;;;;;;7.05;6.15;;;9.90;82.40;;;;;;5019383;28;20036;-61
2021/05/03 04:04:00;;;;;;;6.55;5.57;;;9.90;82.40;;;;;;5023433;28;20038;-61
2021/05/03 04:12:04;;;;;;;12.93;5.97;;;9.90;82.40;;;;;;4992187;28;20143;-61
2021/05/03 04:23:04;;;;;;;39.90;10.00;;;9.70;82.40;;;;;;5020815;28;20040;-60
2021/05/03 04:25:38;;;;;;;45.63;8.18;;;9.80;82.50;;;;;;5022863;28;20025;-60
2021/05/03 04:28:04;;;;;;;57.38;10.27;;;9.70;82.50;;;;;;5026062;28;20079;-60
2021/05/03 04:30:29;;;;;;;50.70;9.02;;;9.70;82.70;;;;;;5014140;28;20037;-60
2021/05/03 04:32:55;;;;;;;48.03;9.68;;;9.70;82.90;;;;;;5043216;28;20417;-61
2021/05/03 04:35:21;;;;;;;34.22;8.82;;;9.70;83.00;;;;;;5018508;28;20034;-60
2021/05/03 04:37:47;;;;;;;45.15;10.10;;;9.70;83.00;;;;;;5022695;28;20074;-61
2021/05/03 04:40:13;;;;;;;47.83;9.30;;;9.70;83.10;;;;;;5021046;28;20040;-60
2021/05/03 04:42:38;;;;;;;28.30;8.82;;;9.70;83.00;;;;;;5023456;28;20040;-60
2021/05/03 04:45:04;;;;;;;37.55;8.60;;;9.70;82.90;;;;;;5018770;28;20037;-60
2021/05/03 04:47:30;;;;;;;38.33;10.18;;;9.70;83.10;;;;;;5025314;28;20141;-61
2021/05/03 04:49:55;;;;;;;90.40;12.00;;;9.70;83.10;;;;;;5022264;28;20077;-60
2021/05/03 04:52:21;;;;;;;365.33;27.30;;;9.70;83.10;;;;;;5024480;28;20436;-60
2021/05/03 04:54:46;;;;;;;177.27;16.58;;;9.70;83.10;;;;;;5017418;28;20049;-60
2021/05/03 04:57:12;;;;;;;293.88;24.42;;;9.70;83.10;;;;;;5024686;28;20045;-60
2021/05/03 04:59:37;;;;;;;286.65;26.35;;;9.70;83.10;;;;;;5017264;28;20103;-60
2021/05/03 05:02:03;;;;;;;631.10;56.50;;;9.60;83.00;;;;;;5016079;28;20088;-61
2021/05/03 05:04:28;;;;;;;531.92;49.40;;;9.70;83.10;;;;;;5004840;28;20090;-60
2021/05/03 05:06:57;;;;;;;392.98;36.25;;;9.70;83.00;;;;;;5012950;28;20062;-60
2021/05/03 05:09:23;;;;;;;364.42;34.50;;;9.70;82.90;;;;;;5017257;28;20449;-60
2021/05/03 05:11:48;;;;;;;360.73;33.65;;;9.70;82.90;;;;;;5019118;28;20026;-61
2021/05/03 05:14:14;;;;;;;352.58;29.60;;;9.70;82.80;;;;;;5025510;28;20029;-61
2021/05/03 05:16:39;;;;;;;289.13;27.75;;;9.70;82.80;;;;;;5025582;28;20037;-61
2021/05/03 05:19:05;;;;;;;295.70;28.52;;;9.70;82.80;;;;;;5020573;28;20045;-61
2021/05/03 05:21:30;;;;;;;310.35;28.70;;;9.70;82.80;;;;;;5016529;28;20124;-61
2021/05/03 05:23:56;;;;;;;259.58;21.98;;;9.70;82.80;;;;;;4999170;28;20021;-61
2021/05/03 05:26:21;;;;;;;239.10;24.45;;;9.70;83.00;;;;;;5019283;28;20179;-60
2021/05/03 05:28:47;;;;;;;226.23;24.50;;;9.70;82.90;;;;;;5021434;28;20025;-61
2021/05/03 05:31:12;;;;;;;266.80;25.00;;;9.70;83.00;;;;;;5020658;28;20034;-60
2021/05/03 05:33:38;;;;;;;251.82;24.23;;;9.70;82.90;;;;;;5000994;28;20022;-61
2021/05/03 05:36:04;;;;;;;236.98;23.00;;;9.70;82.90;;;;;;5009802;28;20061;-61
2021/05/03 05:38:29;;;;;;;224.63;23.80;;;9.70;82.90;;;;;;5022446;28;20030;-60
2021/05/03 05:40:55;;;;;;;205.68;23.13;;;9.60;82.80;;;;;;5023887;28;20025;-61
2021/05/03 05:43:20;;;;;;;179.98;21.35;;;9.60;82.90;;;;;;5017840;28;20048;-61
2021/05/03 05:45:46;;;;;;;186.52;20.45;;;9.60;82.80;;;;;;5024531;28;20035;-61
2021/05/03 05:48:11;;;;;;;181.23;18.95;;;9.70;82.90;;;;;;5011855;28;20054;-60
2021/05/03 05:50:37;;;;;;;159.07;16.60;;;9.60;82.80;;;;;;5019787;28;20421;-60
2021/05/03 05:53:02;;;;;;;164.68;18.08;;;9.70;82.90;;;;;;5019804;28;20022;-61
2021/05/03 05:55:28;;;;;;;167.98;19.77;;;9.70;82.80;;;;;;5024663;28;20484;-60
2021/05/03 05:57:54;;;;;;;131.98;17.02;;;9.70;82.80;;;;;;5019630;28;20025;-61
2021/05/03 06:00:19;;;;;;;160.00;17.17;;;9.70;82.80;;;;;;5018112;28;20292;-61
2021/05/03 06:02:45;;;;;;;124.65;16.38;;;9.70;82.80;;;;;;5005829;28;20036;-60
2021/05/03 06:05:11;;;;;;;128.88;17.00;;;9.70;82.80;;;;;;5020010;28;20030;-61
2021/05/03 06:07:36;;;;;;;136.00;18.90;;;9.70;82.80;;;;;;5006419;28;20164;-60
2021/05/03 06:10:02;;;;;;;151.77;17.55;;;9.70;82.80;;;;;;5005423;28;20083;-60
2021/05/03 06:12:28;;;;;;;102.63;15.52;;;9.70;82.70;;;;;;5003755;28;20100;-61
2021/05/03 06:14:53;;;;;;;121.57;14.07;;;9.70;82.70;;;;;;5012192;28;20100;-61
2021/05/03 06:17:22;;;;;;;117.07;15.10;;;9.70;82.70;;;;;;5020199;28;20441;-60
2021/05/03 06:19:47;;;;;;;107.45;15.25;;;9.70;82.60;;;;;;5022622;28;20068;-61
2021/05/03 06:22:13;;;;;;;107.75;14.30;;;9.70;82.50;;;;;;5003317;28;20100;-60
2021/05/03 06:24:39;;;;;;;89.32;15.20;;;9.70;82.90;;;;;;5003364;28;20029;-61
2021/05/03 06:27:05;;;;;;;130.73;16.67;;;9.70;82.90;;;;;;5029647;28;20581;-60
2021/05/03 06:29:30;;;;;;;91.95;14.07;;;9.70;83.20;;;;;;5018294;28;20160;-61
2021/05/03 06:31:58;;;;;;;71.88;15.05;;;9.70;83.20;;;;;;5017182;28;20160;-60
2021/05/03 06:34:23;;;;;;;88.13;12.93;;;9.70;83.10;;;;;;5018819;28;20521;-61
2021/05/03 06:36:49;;;;;;;86.90;13.75;;;9.70;83.30;;;;;;5014959;28;20037;-60
2021/05/03 06:39:15;;;;;;;83.22;12.85;;;9.70;83.40;;;;;;5019979;28;20037;-61
2021/05/03 06:41:41;;;;;;;75.95;14.02;;;9.70;83.40;;;;;;5018249;28;20041;-62
2021/05/03 06:44:07;;;;;;;69.82;13.05;;;9.70;83.50;;;;;;5013767;28;20033;-60
2021/05/03 06:46:32;;;;;;;80.32;12.93;;;9.70;83.50;;;;;;5018627;28;20038;-60
2021/05/03 06:48:58;;;;;;;64.10;11.38;;;9.80;83.50;;;;;;5017335;28;20041;-61
2021/05/03 06:51:23;;;;;;;81.78;12.93;;;9.70;83.70;;;;;;5014799;28;20456;-61
2021/05/03 06:53:49;;;;;;;67.95;11.77;;;9.80;83.70;;;;;;5020414;28;20033;-60
2021/05/03 06:56:14;;;;;;;72.00;12.18;;;9.80;83.80;;;;;;5018187;28;20041;-60
2021/05/03 06:58:40;;;;;;;60.47;12.43;;;9.80;83.60;;;;;;5020500;28;20030;-60
2021/05/03 07:01:06;;;;;;;59.17;11.05;;;9.80;83.60;;;;;;5018159;28;20041;-61
2021/05/03 07:03:31;;;;;;;86.20;13.13;;;9.80;83.80;;;;;;5021857;28;20029;-60
2021/05/03 07:05:57;;;;;;;41.88;10.88;;;9.80;84.00;;;;;;5018668;28;20064;-60
2021/05/03 07:08:25;;;;;;;46.47;10.98;;;9.80;84.60;;;;;;5018965;28;20057;-61
2021/05/03 07:10:52;;;;;;;51.03;11.65;;;9.80;84.80;;;;;;5020686;28;20024;-61
2021/05/03 07:13:18;;;;;;;42.70;11.50;;;9.80;85.20;;;;;;5022232;28;20515;-61
2021/05/03 07:15:43;;;;;;;46.65;11.55;;;9.80;85.40;;;;;;5021466;28;20033;-60
2021/05/03 07:18:09;;;;;;;33.80;10.27;;;9.80;85.70;;;;;;5018372;28;20870;-61
2021/05/03 07:20:34;;;;;;;35.60;10.68;;;9.80;86.00;;;;;;5017016;28;20050;-60
2021/05/03 07:23:03;;;;;;;26.52;10.73;;;9.80;86.10;;;;;;5019424;28;20116;-60
2021/05/03 07:25:29;;;;;;;36.15;10.63;;;9.70;86.10;;;;;;5021373;28;20136;-60
2021/05/03 07:27:54;;;;;;;53.30;12.45;;;9.80;86.40;;;;;;5019777;28;20477;-60
2021/05/03 07:30:20;;;;;;;29.98;10.25;;;9.80;86.70;;;;;;5021175;28;20036;-61
2021/05/03 07:32:45;;;;;;;37.95;10.70;;;9.70;86.70;;;;;;5020137;28;20053;-61
2021/05/03 07:35:13;;;;;;;45.28;10.55;;;9.80;86.90;;;;;;5018614;28;20042;-61
2021/05/03 07:37:39;;;;;;;35.90;10.13;;;9.80;86.80;;;;;;5020365;28;20456;-61
2021/05/03 07:40:05;;;;;;;32.22;10.88;;;9.80;86.40;;;;;;5021235;28;20069;-60
2021/05/03 07:42:30;;;;;;;35.78;11.50;;;9.80;86.60;;;;;;5019127;28;20026;-61
2021/05/03 07:44:56;;;;;;;45.67;10.77;;;9.80;86.60;;;;;;5020810;28;20034;-60
2021/05/03 07:47:21;;;;;;;46.47;10.57;;;9.80;86.40;;;;;;5018010;28;20786;-61
2021/05/03 07:49:47;;;;;;;28.38;9.80;;;9.90;86.70;;;;;;5019923;28;20025;-60
2021/05/03 07:52:12;;;;;;;40.58;10.07;;;9.90;86.40;;;;;;5020763;28;20473;-61
2021/05/03 07:54:38;;;;;;;25.45;9.60;;;9.90;86.90;;;;;;5020817;28;20034;-61
2021/05/03 07:57:03;;;;;;;27.77;9.50;;;9.90;86.70;;;;;;5018259;28;20030;-60
2021/05/03 07:59:29;;;;;;;31.55;9.27;;;9.90;86.40;;;;;;5014903;28;20049;-60
2021/05/03 08:01:55;;;;;;;29.48;10.38;;;9.90;86.30;;;;;;5018240;28;20143;-61
2021/05/03 08:04:21;;;;;;;23.92;10.18;;;10.00;86.40;;;;;;5017788;28;20116;-61
2021/05/03 08:06:47;;;;;;;25.70;9.98;;;10.00;86.80;;;;;;5016057;28;20079;-60
2021/05/03 08:09:12;;;;;;;31.38;11.02;;;10.00;86.80;;;;;;5017778;28;20025;-60
2021/05/03 08:11:44;;;;;;;32.88;10.40;;;10.00;87.00;;;;;;5012870;28;20064;-60
2021/05/03 08:14:12;;;;;;;34.15;9.98;;;10.00;87.50;;;;;;5022178;28;20037;-60
2021/05/03 08:16:39;;;;;;;23.38;9.27;;;10.10;87.50;;;;;;5018336;28;20037;-61
2021/05/03 08:19:04;;;;;;;21.42;8.73;;;10.10;86.80;;;;;;5020000;28;20040;-60
2021/05/03 08:21:30;;;;;;;22.08;8.48;;;10.10;86.70;;;;;;5021615;28;20038;-61
2021/05/03 08:23:56;;;;;;;22.50;8.23;;;10.10;86.10;;;;;;5017424;28;20065;-60
2021/05/03 08:26:22;;;;;;;22.00;7.47;;;10.10;85.80;;;;;;5019981;28;20647;-61
2021/05/03 08:28:48;;;;;;;17.30;7.82;;;10.10;85.40;;;;;;5021573;28;20034;-60
2021/05/03 08:31:14;;;;;;;24.65;8.10;;;10.20;85.20;;;;;;5026417;28;20025;-61
2021/05/03 08:33:40;;;;;;;29.40;9.07;;;10.20;85.20;;;;;;5025985;28;20029;-61
2021/05/03 08:36:05;;;;;;;22.27;8.68;;;10.20;85.20;;;;;;5022160;28;20104;-60
2021/05/03 08:38:31;;;;;;;15.07;7.18;;;10.20;84.90;;;;;;5023182;28;20049;-60
2021/05/03 08:40:58;;;;;;;16.88;7.68;;;10.20;84.90;;;;;;5021206;28;20087;-61
2021/05/03 08:43:26;;;;;;;21.48;8.07;;;10.30;84.80;;;;;;5017733;28;20035;-61
2021/05/03 08:45:52;;;;;;;19.60;8.32;;;10.30;84.70;;;;;;5023631;28;20425;-60
2021/05/03 08:48:24;;;;;;;18.23;6.90;;;10.30;83.90;;;;;;5038054;28;20045;-60
2021/05/03 08:51:00;;;;;;;20.00;7.05;;;10.30;83.60;;;;;;5021098;28;20063;-61
2021/05/03 08:53:36;;;;;;;26.95;7.85;;;10.40;83.60;;;;;;5018154;28;20072;-60
2021/05/03 08:56:01;;;;;;;34.88;8.63;;;10.40;83.40;;;;;;5020562;28;20121;-61
2021/05/03 08:58:28;;;;;;;38.00;8.77;;;10.40;83.40;;;;;;5023025;28;20124;-61
2021/05/03 09:00:53;;;;;;;41.72;8.55;;;10.50;83.30;;;;;;5003299;28;20060;-61
2021/05/03 09:03:19;;;;;;;102.28;13.15;;;10.50;83.00;;;;;;5033100;28;20092;-61
2021/05/03 09:05:44;;;;;;;51.75;9.50;;;10.50;82.90;;;;;;5022163;28;20055;-60
2021/05/03 09:08:26;;;;;;;53.53;9.15;;;10.50;82.70;;;;;;5038263;28;20033;-60
2021/05/03 09:10:52;;;;;;;66.22;11.48;;;10.50;82.50;;;;;;5022297;28;20057;-61
2021/05/03 09:13:29;;;;;;;86.47;12.73;;;10.60;82.30;;;;;;5020443;28;20030;-60
2021/05/03 09:16:11;;;;;;;45.35;9.38;;;10.60;82.70;;;;;;5022320;28;20060;-60
2021/05/03 09:18:39;;;;;;;45.58;8.70;;;10.70;81.80;;;;;;5017925;28;20046;-60
2021/05/03 09:21:04;;;;;;;119.47;15.35;;;10.70;81.50;;;;;;5022854;28;20041;-60
2021/05/03 09:23:30;;;;;;;47.72;9.55;;;10.70;81.00;;;;;;5022746;28;20162;-61
2021/05/03 09:25:55;;;;;;;28.20;8.07;;;10.70;80.70;;;;;;5023751;28;20041;-61
2021/05/03 09:28:30;;;;;;;36.35;8.32;;;10.80;80.40;;;;;;5021464;28;20045;-60
2021/05/03 09:30:56;;;;;;;27.38;7.57;;;10.70;79.40;;;;;;5018478;28;20168;-61
2021/05/03 09:33:32;;;;;;;45.20;9.43;;;10.80;79.00;;;;;;5022305;28;20211;-61
2021/05/03 09:35:58;;;;;;;48.97;8.90;;;10.80;78.60;;;;;;5017997;28;20038;-60
2021/05/03 09:38:41;;;;;;;492.60;48.55;;;10.90;78.50;;;;;;5024187;28;20034;-61
2021/05/03 09:41:21;;;;;;;111.32;15.38;;;10.90;78.50;;;;;;5020917;28;20025;-60
2021/05/03 09:43:48;;;;;;;78.47;10.18;;;10.90;78.00;;;;;;5020993;28;20040;-60
2021/05/03 09:46:28;;;;;;;48.22;8.98;;;11.00;77.30;;;;;;5021052;28;20034;-61
2021/05/03 09:48:54;;;;;;;148.40;16.45;;;11.00;77.40;;;;;;5020651;28;20041;-60
2021/05/03 09:51:43;;;;;;;108.60;16.00;;;11.10;77.50;;;;;;5023024;28;20084;-61
2021/05/03 09:54:20;;;;;;;46.75;10.02;;;11.10;76.80;;;;;;5005402;28;20102;-61
2021/05/03 09:57:01;;;;;;;45.22;8.23;;;11.10;76.50;;;;;;5020926;28;20029;-61
2021/05/03 09:59:35;;;;;;;44.60;7.93;;;11.10;76.10;;;;;;5017451;28;20025;-61
2021/05/03 10:02:20;;;;;;;55.70;7.40;;;11.10;75.50;;;;;;5036700;28;20488;-61
2021/05/03 10:04:54;;;;;;;25.23;6.13;;;11.20;75.10;;;;;;5022796;28;20453;-61
2021/05/03 10:07:21;;;;;;;35.80;6.90;;;11.20;75.10;;;;;;5021619;28;20136;-61
2021/05/03 10:09:52;;;;;;;32.80;6.78;;;11.20;73.80;;;;;;5021052;28;20124;-60
2021/05/03 10:12:17;;;;;;;42.30;6.93;;;11.20;73.90;;;;;;5019795;28;20281;-61
2021/05/03 10:14:45;;;;;;;33.90;7.43;;;11.20;73.00;;;;;;5020527;28;20098;-61
2021/05/03 10:17:11;;;;;;;39.67;6.97;;;11.30;73.00;;;;;;5022236;28;20366;-61
2021/05/03 10:19:37;;;;;;;47.83;7.13;;;11.30;72.60;;;;;;5023613;28;20130;-60
2021/05/03 10:22:04;;;;;;;35.20;6.93;;;11.40;72.60;;;;;;5019150;28;20398;-61
2021/05/03 10:24:29;;;;;;;52.05;8.10;;;11.40;72.40;;;;;;5020197;28;20041;-61
2021/05/03 10:26:55;;;;;;;42.85;8.18;;;11.40;71.80;;;;;;5023095;28;20491;-60
2021/05/03 10:29:24;;;;;;;41.65;7.78;;;11.40;71.60;;;;;;5037456;28;20032;-61
2021/05/03 10:32:03;;;;;;;49.90;8.13;;;11.50;70.80;;;;;;5020509;28;20080;-60
2021/05/03 10:34:43;;;;;;;60.40;8.70;;;11.50;70.10;;;;;;5021539;28;20029;-61
2021/05/03 10:37:31;;;;;;;35.17;6.85;;;11.50;69.90;;;;;;5035521;28;20083;-61
2021/05/03 10:40:00;;;;;;;47.55;6.93;;;11.50;68.90;;;;;;5021712;28;20017;-61
2021/05/03 10:42:25;;;;;;;35.42;6.15;;;11.50;68.60;;;;;;5020861;28;20048;-60
2021/05/03 10:45:19;;;;;;;22.17;4.70;;;11.50;68.80;;;;;;5019214;28;20460;-60
2021/05/03 10:47:48;;;;;;;31.50;5.45;;;11.60;67.70;;;;;;5018286;28;20138;-62
2021/05/03 10:50:35;;;;;;;31.40;5.63;;;11.60;68.00;;;;;;5036114;28;20026;-61
2021/05/03 10:53:26;;;;;;;43.40;5.90;;;11.70;66.30;;;;;;5019118;28;20022;-61
2021/05/03 10:55:53;;;;;;;27.38;5.38;;;11.70;67.40;;;;;;5014904;28;20036;-60
2021/05/03 10:58:18;;;;;;;31.70;6.43;;;11.70;67.70;;;;;;5020590;28;20116;-61
2021/05/03 11:01:08;;;;;;;39.92;6.97;;;11.80;67.20;;;;;;5018129;28;20100;-61
2021/05/03 11:04:09;;;;;;;33.60;6.85;;;11.80;67.60;;;;;;5017833;28;20099;-61
2021/05/03 11:06:37;;;;;;;19.85;4.68;;;11.90;66.50;;;;;;4944870;28;20051;-61
2021/05/03 11:09:28;;;;;;;44.78;5.65;;;12.00;65.60;;;;;;5004163;28;20119;-60
2021/05/03 11:11:54;;;;;;;25.02;4.82;;;12.00;65.10;;;;;;5033787;28;20498;-61
2021/05/03 11:14:21;;;;;;;22.35;4.47;;;12.10;65.00;;;;;;5021198;28;20037;-61
2021/05/03 11:16:54;;;;;;;24.20;4.18;;;12.10;64.60;;;;;;5021044;28;20113;-61
2021/05/03 11:22:48;;;;;;;26.35;3.97;;;12.30;63.90;;;;;;5018383;28;20115;-60
2021/05/03 11:25:22;;;;;;;32.63;5.15;;;12.40;63.60;;;;;;5015535;28;20529;-61
2021/05/03 11:46:25;;;;;;;11.40;3.08;;;12.90;60.20;;;;;;5018187;28;20569;-61
2021/05/03 11:48:52;;;;;;;15.27;3.83;;;13.00;59.70;;;;;;5020107;28;20058;-61
2021/05/03 11:51:18;;;;;;;21.75;3.60;;;13.10;59.90;;;;;;5034666;28;20034;-62
2021/05/03 11:53:44;;;;;;;17.85;4.63;;;13.20;60.10;;;;;;5020064;28;20519;-61
2021/05/03 11:56:29;;;;;;;21.17;3.55;;;13.30;60.00;;;;;;5019192;28;20114;-61
2021/05/03 11:58:56;;;;;;;19.13;3.70;;;13.30;60.00;;;;;;5034926;28;20051;-61
2021/05/03 12:01:24;;;;;;;14.15;3.45;;;13.40;59.50;;;;;;5002784;28;20054;-61
2021/05/03 12:03:51;;;;;;;18.00;3.50;;;13.50;59.10;;;;;;5018356;28;20250;-61
2021/05/03 12:06:32;;;;;;;26.75;3.80;;;13.60;58.80;;;;;;5024328;28;20029;-61
2021/05/03 12:09:13;;;;;;;15.50;4.22;;;13.70;59.00;;;;;;5024107;28;20040;-61
2021/05/03 12:11:39;;;;;;;26.63;4.57;;;13.80;59.00;;;;;;5020804;28;20029;-60
2021/05/03 12:14:05;;;;;;;19.77;3.42;;;13.90;58.90;;;;;;5041900;28;20033;-61
2021/05/03 12:16:38;;;;;;;18.83;4.22;;;13.90;58.60;;;;;;5021684;28;20026;-61
2021/05/03 12:19:30;;;;;;;14.63;3.95;;;14.00;58.70;;;;;;5006619;28;20034;-62
2021/05/03 12:22:02;;;;;;;23.70;4.28;;;14.10;58.20;;;;;;5032936;28;20042;-62
2021/05/03 12:24:34;;;;;;;18.25;4.05;;;14.20;58.10;;;;;;5018363;28;20287;-61
2021/05/03 12:26:59;;;;;;;22.73;4.30;;;14.20;58.40;;;;;;5024513;28;20340;-61
2021/05/03 12:29:26;;;;;;;20.73;4.40;;;14.30;58.60;;;;;;5024238;28;20060;-61
2021/05/03 12:31:51;;;;;;;19.30;3.55;;;14.30;58.40;;;;;;5024046;28;20048;-61
2021/05/03 12:34:24;;;;;;;15.65;3.55;;;14.20;58.60;;;;;;5017781;28;20489;-61
2021/05/03 12:37:05;;;;;;;23.85;3.70;;;14.20;58.50;;;;;;5016856;28;20116;-61
2021/05/03 12:39:32;;;;;;;33.78;4.43;;;14.30;59.10;;;;;;5037993;28;20112;-61
2021/05/03 12:42:18;;;;;;;17.98;4.70;;;14.40;58.80;;;;;;5021846;28;20046;-61
2021/05/03 12:44:53;;;;;;;21.92;5.50;;;14.50;57.80;;;;;;5023407;28;20034;-62
2021/05/03 12:47:51;;;;;;;31.13;5.05;;;14.50;57.60;;;;;;5020325;28;20100;-61
2021/05/03 12:50:29;;;;;;;33.78;5.22;;;14.50;57.30;;;;;;5033351;28;20056;-60
2021/05/03 12:53:02;;;;;;;26.77;4.10;;;14.60;57.20;;;;;;5021224;28;20591;-61
2021/05/03 12:55:33;;;;;;;27.17;5.40;;;14.70;57.50;;;;;;5005532;28;20094;-61
2021/05/03 12:58:07;;;;;;;36.50;4.82;;;14.70;57.70;;;;;;5011419;28;20048;-61
2021/05/03 13:00:37;;;;;;;31.42;5.28;;;14.70;57.80;;;;;;4990757;28;20400;-61
2021/05/03 13:03:11;;;;;;;30.30;4.45;;;14.80;57.50;;;;;;5015675;28;20030;-61
2021/05/03 13:05:42;;;;;;;30.88;5.13;;;14.90;57.10;;;;;;5021830;28;20029;-61
2021/05/03 13:08:15;;;;;;;19.92;4.88;;;14.90;57.40;;;;;;5017347;28;20076;-62
2021/05/03 13:29:59;;;;;;;16.73;3.65;;;15.40;55.90;;;;;;5021747;28;20040;-61
2021/05/03 13:32:29;;;;;;;17.23;4.22;;;15.50;55.60;;;;;;5024343;28;20026;-60
2021/05/03 13:34:54;;;;;;;28.38;3.55;;;15.50;55.10;;;;;;5020447;28;20056;-61
2021/05/03 13:37:21;;;;;;;24.52;3.75;;;15.60;55.00;;;;;;5014623;28;20977;-61